Time;durP1;ratioP1;P1;durP2;ratioP2;P2;SDS_P1;SDS_P2;PMS_P1;PMS_P2;Temp;Humidity;BMP_temperature;BMP_pressure;BME280_temperature;BME280_humidity;BME280_pressure;Samples;Min_cycle;Max_cycle;Signal;HPM_P1;HPM_P2
2023/04/17 04:59:58;;;;;;;7.25;5.22;;;;;;;6.32;100.00;101311.03;5109405;27;20040;-74
2023/04/17 06:59:28;;;;;;;17.27;12.20;;;;;;;7.74;100.00;101403.78;5107050;27;20425;-74
2023/04/17 07:02:12;;;;;;;16.17;11.45;;;;;;;7.91;100.00;101411.25;5082022;28;20071;-74
2023/04/17 07:04:56;;;;;;;14.32;11.20;;;;;;;8.10;100.00;101409.03;5050853;28;20150;-74
2023/04/17 07:07:41;;;;;;;19.20;13.10;;;;;;;8.32;100.00;101400.72;5080406;28;20519;-75
2023/04/17 07:10:25;;;;;;;13.43;8.52;;;;;;;8.54;100.00;101404.38;5049585;28;20083;-74
2023/04/17 07:13:09;;;;;;;14.88;10.55;;;;;;;8.80;100.00;101408.25;5094382;28;20047;-74
2023/04/17 07:15:54;;;;;;;16.23;12.02;;;;;;;9.05;100.00;101409.63;5093841;28;20038;-74
2023/04/17 07:18:39;;;;;;;17.17;11.50;;;;;;;9.28;100.00;101414.00;5082904;28;20070;-76
2023/04/17 07:21:23;;;;;;;19.20;11.77;;;;;;;9.52;100.00;101415.31;5039140;28;20114;-76
2023/04/17 07:24:07;;;;;;;15.30;10.82;;;;;;;9.78;100.00;101415.53;5079431;28;20043;-76
2023/04/17 07:26:51;;;;;;;16.98;10.30;;;;;;;10.03;100.00;101414.84;5067859;28;20090;-76
2023/04/17 07:29:36;;;;;;;15.07;10.65;;;;;;;10.27;100.00;101412.50;5075851;28;20043;-76
2023/04/17 07:32:21;;;;;;;20.73;11.27;;;;;;;10.47;100.00;101415.38;5072867;28;20075;-76
2023/04/17 07:35:05;;;;;;;18.45;11.65;;;;;;;10.70;100.00;101421.59;5075342;28;20439;-76
2023/04/17 07:37:50;;;;;;;17.38;11.10;;;;;;;10.86;100.00;101420.50;5061393;28;20111;-76
2023/04/17 07:40:34;;;;;;;15.05;11.02;;;;;;;11.10;100.00;101420.00;5087474;28;20066;-76
2023/04/17 07:43:18;;;;;;;16.05;11.05;;;;;;;11.30;100.00;101427.53;5064607;28;20043;-76
2023/04/17 07:46:03;;;;;;;15.07;10.80;;;;;;;11.52;100.00;101422.53;5066468;28;20121;-76
2023/04/17 07:48:47;;;;;;;17.52;10.55;;;;;;;11.73;100.00;101425.28;5073618;28;20503;-76
2023/04/17 07:51:31;;;;;;;15.40;10.73;;;;;;;11.94;100.00;101429.75;5038634;28;20044;-76
2023/04/17 07:54:16;;;;;;;14.32;10.93;;;;;;;12.16;100.00;101428.63;5072306;28;20047;-76
2023/04/17 07:57:01;;;;;;;16.30;9.85;;;;;;;12.34;100.00;101421.59;5049215;28;20051;-76
2023/04/17 07:59:46;;;;;;;14.77;9.77;;;;;;;12.56;100.00;101424.84;5097577;28;20078;-76
2023/04/17 08:02:30;;;;;;;12.18;8.88;;;;;;;12.72;100.00;101409.72;5062569;28;20098;-77
2023/04/17 08:05:14;;;;;;;15.57;9.68;;;;;;;12.92;100.00;101413.50;5054239;28;20050;-77
2023/04/17 08:07:59;;;;;;;13.95;9.25;;;;;;;13.09;100.00;101407.56;5053934;28;20066;-76
2023/04/17 08:10:43;;;;;;;16.98;9.23;;;;;;;13.30;100.00;101402.72;5068468;28;20059;-76
2023/04/17 08:13:29;;;;;;;16.20;9.43;;;;;;;13.49;100.00;101402.84;5096862;28;20078;-76
2023/04/17 08:16:14;;;;;;;14.50;9.80;;;;;;;13.66;100.00;101408.00;5054061;28;20047;-77
2023/04/17 08:18:57;;;;;;;9.38;7.32;;;;;;;13.91;100.00;101404.94;5067881;28;20108;-77
2023/04/17 08:21:42;;;;;;;9.88;6.00;;;;;;;14.15;100.00;101402.19;5082088;28;20786;-77
2023/04/17 08:24:26;;;;;;;14.52;8.73;;;;;;;14.29;100.00;101408.72;5081170;28;20039;-77
2023/04/17 08:27:12;;;;;;;10.43;6.78;;;;;;;14.51;100.00;101415.72;5082212;28;20039;-77
2023/04/17 08:29:56;;;;;;;11.60;7.47;;;;;;;14.71;100.00;101409.09;5068750;28;20066;-77
2023/04/17 08:32:41;;;;;;;10.25;5.55;;;;;;;14.91;100.00;101411.59;5082057;28;20058;-77
2023/04/17 08:35:25;;;;;;;10.80;5.78;;;;;;;15.10;98.36;101416.34;5073694;28;20089;-77
2023/04/17 08:38:12;;;;;;;14.40;6.28;;;;;;;15.28;95.93;101423.91;5081758;28;20043;-77
2023/04/17 08:40:58;;;;;;;11.15;5.80;;;;;;;15.37;89.89;101422.06;5091728;28;20082;-77
2023/04/17 08:43:42;;;;;;;9.30;5.20;;;;;;;15.60;90.22;101419.47;5082030;28;20194;-77
2023/04/17 08:46:26;;;;;;;12.20;5.60;;;;;;;15.75;88.39;101422.03;5067685;28;20097;-77
2023/04/17 08:49:10;;;;;;;11.55;6.65;;;;;;;15.85;85.24;101427.47;5081869;28;20039;-77
2023/04/17 08:51:54;;;;;;;11.32;6.53;;;;;;;15.91;78.66;101418.94;5053205;28;20564;-77
2023/04/17 08:54:39;;;;;;;9.57;6.40;;;;;;;16.16;82.08;101426.06;5053634;28;20089;-77
2023/04/17 08:57:23;;;;;;;10.60;6.28;;;;;;;16.28;82.71;101418.81;5081445;28;20043;-77
2023/04/17 09:00:10;;;;;;;12.88;7.45;;;;;;;16.46;81.48;101424.63;5064337;28;20090;-77
2023/04/17 09:02:55;;;;;;;12.27;6.60;;;;;;;16.54;80.29;101424.72;5081477;28;20046;-78
2023/04/17 09:05:42;;;;;;;10.77;5.40;;;;;;;16.77;78.79;101426.81;5067386;28;20051;-77
2023/04/17 09:08:28;;;;;;;8.80;6.00;;;;;;;16.90;76.33;101423.97;5053508;28;20047;-77
2023/04/17 09:11:15;;;;;;;13.57;6.40;;;;;;;17.02;72.56;101419.81;5067298;28;20420;-78
2023/04/17 09:14:00;;;;;;;9.60;6.25;;;;;;;17.15;75.97;101416.97;5053305;28;20047;-78
2023/04/17 09:16:56;;;;;;;12.57;6.20;;;;;;;17.27;76.61;101424.81;5053074;28;20074;-78
2023/04/17 09:20:07;;;;;;;13.05;6.20;;;;;;;17.41;70.58;101424.75;5052628;28;20129;-78
2023/04/17 09:22:59;;;;;;;9.40;5.30;;;;;;;17.49;70.45;101424.00;5081080;28;20500;-77
2023/04/17 09:25:45;;;;;;;11.60;5.60;;;;;;;17.38;68.75;101431.03;5052689;28;20047;-78
2023/04/17 09:28:34;;;;;;;11.35;5.38;;;;;;;17.53;66.89;101429.84;5049739;28;20047;-77
2023/04/17 09:31:18;;;;;;;7.65;5.03;;;;;;;17.63;65.12;101412.69;5089387;28;20120;-78
2023/04/17 09:34:03;;;;;;;13.98;5.32;;;;;;;17.62;66.02;101411.88;5096099;28;20093;-78
2023/04/17 09:36:47;;;;;;;10.93;5.43;;;;;;;17.60;65.29;101411.38;5066476;28;20047;-77
2023/04/17 09:39:31;;;;;;;10.18;5.47;;;;;;;17.67;65.89;101412.91;5052476;28;20123;-78
2023/04/17 09:42:15;;;;;;;13.10;6.60;;;;;;;17.64;64.16;101401.16;5066278;28;20506;-77
2023/04/17 09:45:16;;;;;;;10.07;6.03;;;;;;;17.59;65.54;101406.91;5066238;28;20051;-77
2023/04/17 09:48:04;;;;;;;14.05;6.32;;;;;;;17.56;65.75;101413.16;5065293;28;20039;-77
2023/04/17 09:50:48;;;;;;;11.57;6.25;;;;;;;17.50;64.28;101397.59;5066442;28;20121;-77
2023/04/17 09:53:32;;;;;;;14.10;6.32;;;;;;;17.64;64.49;101391.91;5064452;28;20108;-77
2023/04/17 09:56:16;;;;;;;10.77;5.15;;;;;;;17.70;63.06;101382.19;5052096;28;20059;-78
2023/04/17 09:59:01;;;;;;;11.07;5.93;;;;;;;17.78;64.36;101391.84;5080209;28;20055;-78
2023/04/17 10:01:45;;;;;;;8.85;4.70;;;;;;;17.86;63.53;101382.66;5080158;28;20154;-77
2023/04/17 10:04:29;;;;;;;7.97;4.97;;;;;;;17.89;61.18;101375.56;5052277;28;20039;-78
2023/04/17 10:07:15;;;;;;;9.40;4.80;;;;;;;18.08;59.52;101370.53;5051707;28;20049;-78
2023/04/17 10:09:59;;;;;;;9.70;4.40;;;;;;;18.15;57.41;101367.25;5063949;28;20039;-77
2023/04/17 10:12:44;;;;;;;10.73;4.00;;;;;;;18.21;57.51;101371.56;5051295;28;20082;-78
2023/04/17 10:15:28;;;;;;;7.28;3.70;;;;;;;18.17;58.51;101365.78;5052106;28;20035;-77
2023/04/17 10:18:21;;;;;;;7.55;3.55;;;;;;;18.26;57.85;101374.22;5079996;28;20050;-78
2023/04/17 10:21:18;;;;;;;;;;;;;;;18.35;57.46;101371.44;5069971;28;20035;-78
2023/04/17 10:24:25;;;;;;;7.47;3.47;;;;;;;18.50;55.81;101371.84;5080007;28;19916;-78
2023/04/17 10:27:27;;;;;;;8.32;3.15;;;;;;;18.71;57.44;101357.13;5079950;28;20042;-78
2023/04/17 10:30:12;;;;;;;8.40;3.53;;;;;;;18.78;56.05;101354.72;5091736;28;20039;-77
2023/04/17 10:33:14;;;;;;;6.65;3.22;;;;;;;18.88;55.52;101356.34;5064816;28;20047;-78
2023/04/17 10:35:58;;;;;;;10.60;4.23;;;;;;;18.57;54.24;101357.28;5079673;28;20047;-78
2023/04/17 10:38:42;;;;;;;8.60;4.40;;;;;;;18.77;54.73;101358.66;5065637;28;20060;-78
2023/04/17 10:41:26;;;;;;;10.43;3.90;;;;;;;18.82;55.61;101355.69;5050527;28;20055;-77
2023/04/17 10:44:10;;;;;;;10.55;4.82;;;;;;;18.67;55.75;101344.91;5051732;28;20063;-78
2023/04/17 10:46:54;;;;;;;7.03;4.03;;;;;;;18.85;57.03;101351.38;5065686;28;20035;-77
2023/04/17 10:49:47;;;;;;;9.38;4.57;;;;;;;18.86;56.30;101348.25;5079207;28;20054;-78
2023/04/17 10:52:31;;;;;;;10.52;5.32;;;;;;;18.62;56.08;101356.31;5079813;28;20043;-77
2023/04/17 10:55:19;;;;;;;8.73;5.45;;;;;;;18.65;57.21;101359.28;5095368;28;20043;-78
2023/04/17 10:58:12;;;;;;;12.63;5.68;;;;;;;18.45;57.29;101357.91;5054286;28;20047;-78
2023/04/17 11:01:01;;;;;;;10.77;5.13;;;;;;;18.59;57.66;101356.97;5048874;28;20102;-78
2023/04/17 11:03:45;;;;;;;9.10;4.30;;;;;;;18.51;56.55;101355.78;5060245;28;20051;-78
2023/04/17 11:06:30;;;;;;;11.20;4.45;;;;;;;18.44;57.18;101350.66;5060393;28;20190;-77
2023/04/17 11:09:14;;;;;;;6.88;3.97;;;;;;;18.26;54.17;101354.56;5069005;28;20039;-77
2023/04/17 11:12:00;;;;;;;8.57;3.70;;;;;;;18.24;54.41;101357.69;5048933;28;20047;-77
2023/04/17 11:14:44;;;;;;;8.00;3.60;;;;;;;18.33;54.15;101352.09;5063774;28;20059;-78
2023/04/17 11:17:28;;;;;;;5.97;3.63;;;;;;;18.30;54.92;101347.97;5064144;28;20105;-77
2023/04/17 11:20:16;;;;;;;8.27;4.22;;;;;;;18.19;54.89;101345.75;5094329;28;20570;-78
2023/04/17 11:23:03;;;;;;;7.75;3.97;;;;;;;18.25;55.51;101345.28;5067666;28;20074;-78
2023/04/17 11:25:48;;;;;;;8.15;4.20;;;;;;;18.19;55.47;101340.13;5051981;28;20055;-77
2023/04/17 11:28:33;;;;;;;8.13;4.20;;;;;;;18.05;54.23;101340.25;5064485;28;20067;-77
2023/04/17 11:31:18;;;;;;;8.93;4.10;;;;;;;17.97;55.21;101344.69;5051698;28;20047;-77
2023/04/17 11:34:06;;;;;;;10.40;4.88;;;;;;;17.96;55.37;101336.56;5051519;28;20047;-77
2023/04/17 11:36:55;;;;;;;8.00;3.45;;;;;;;18.18;56.02;101335.66;5079978;28;20106;-78
2023/04/17 11:39:41;;;;;;;6.50;3.83;;;;;;;18.18;55.25;101335.66;5066631;28;20039;-77
2023/04/17 11:42:26;;;;;;;9.25;3.67;;;;;;;18.26;53.85;101337.69;5065694;28;20121;-77
2023/04/17 11:45:10;;;;;;;10.52;3.80;;;;;;;18.35;51.28;101327.28;5032919;28;20075;-77
2023/04/17 11:47:54;;;;;;;8.07;4.40;;;;;;;18.32;53.53;101333.56;5055209;28;20381;-77
2023/04/17 11:50:40;;;;;;;7.50;4.20;;;;;;;18.37;52.74;101322.16;5069266;28;20078;-77
2023/04/17 11:53:24;;;;;;;9.38;5.00;;;;;;;18.19;51.79;101320.44;5050125;28;20081;-77
2023/04/17 11:56:14;;;;;;;6.72;4.55;;;;;;;18.28;51.23;101324.94;5072251;28;20034;-78
2023/04/17 11:58:59;;;;;;;8.88;4.93;;;;;;;18.34;52.86;101313.56;5075153;28;20504;-77
2023/04/17 12:01:50;;;;;;;7.43;4.78;;;;;;;18.28;51.44;101319.34;5064233;28;20463;-77
2023/04/17 12:04:35;;;;;;;8.30;4.10;;;;;;;18.25;50.46;101313.53;5048214;28;20040;-77
2023/04/17 12:07:20;;;;;;;5.97;4.20;;;;;;;18.33;49.69;101304.31;5048355;28;20056;-78
2023/04/17 12:10:05;;;;;;;7.40;3.83;;;;;;;18.47;51.07;101305.00;5032671;28;20062;-77
2023/04/17 12:12:49;;;;;;;6.82;3.35;;;;;;;18.54;51.44;101310.13;5025115;28;20048;-77
2023/04/17 12:15:34;;;;;;;7.57;4.05;;;;;;;18.62;52.93;101309.31;5048065;28;20450;-77
2023/04/17 12:18:18;;;;;;;8.48;4.32;;;;;;;18.63;52.49;101310.13;5045290;28;20151;-77
2023/04/17 12:21:02;;;;;;;6.13;4.10;;;;;;;18.79;52.65;101314.13;5043666;28;20123;-78
2023/04/17 12:23:46;;;;;;;6.15;3.78;;;;;;;18.82;50.12;101318.28;5061997;28;20075;-77
2023/04/17 12:26:30;;;;;;;8.05;3.78;;;;;;;18.77;49.97;101305.19;5076192;28;20075;-77
2023/04/17 12:29:15;;;;;;;8.23;4.15;;;;;;;18.74;50.24;101306.69;5061822;28;20035;-77
2023/04/17 12:31:59;;;;;;;6.50;4.28;;;;;;;18.70;49.81;101310.47;5076250;28;20039;-78
2023/04/17 12:34:43;;;;;;;7.82;4.60;;;;;;;18.62;50.83;101302.84;5047700;28;20566;-77
2023/04/17 12:37:27;;;;;;;8.07;4.65;;;;;;;18.63;51.28;101298.88;5038242;28;20059;-77
2023/04/17 12:40:11;;;;;;;4.57;3.13;;;;;;;18.71;51.48;101289.59;5061888;28;20067;-77
2023/04/17 12:42:55;;;;;;;6.55;3.70;;;;;;;18.78;50.81;101289.97;5043300;28;20066;-77
2023/04/17 12:45:40;;;;;;;8.18;3.75;;;;;;;18.73;50.79;101290.94;5028077;28;20043;-77
2023/04/17 12:48:25;;;;;;;7.65;3.92;;;;;;;18.71;52.63;101286.78;5061507;28;20500;-77
2023/04/17 12:51:09;;;;;;;5.82;3.20;;;;;;;18.84;51.64;101287.84;5076398;28;20052;-77
2023/04/17 12:53:56;;;;;;;7.10;4.25;;;;;;;18.78;52.63;101281.53;5040333;28;20078;-77
2023/04/17 12:56:41;;;;;;;6.47;4.30;;;;;;;18.72;51.80;101280.00;5046785;28;20042;-77
2023/04/17 12:59:25;;;;;;;5.60;4.38;;;;;;;18.62;51.07;101277.53;5045240;28;20043;-77
2023/04/17 13:02:09;;;;;;;9.23;5.38;;;;;;;18.58;50.39;101277.34;5049119;28;20124;-77
2023/04/17 13:04:54;;;;;;;8.57;4.65;;;;;;;18.46;51.43;101282.81;5047459;28;20083;-77
2023/04/17 13:07:39;;;;;;;6.28;4.85;;;;;;;18.24;52.36;101281.75;5047146;28;20039;-77
2023/04/17 13:10:23;;;;;;;8.13;5.03;;;;;;;18.14;51.97;101279.28;5047359;28;20051;-77
2023/04/17 13:13:07;;;;;;;8.50;4.60;;;;;;;18.19;51.43;101267.88;5041177;28;20043;-77
2023/04/17 13:15:51;;;;;;;8.07;4.28;;;;;;;18.29;52.88;101261.09;5045399;28;20138;-77
2023/04/17 13:18:36;;;;;;;6.97;4.28;;;;;;;18.19;54.33;101267.03;5058491;28;20043;-78
2023/04/17 13:21:20;;;;;;;7.15;4.32;;;;;;;18.19;53.28;101261.41;5061059;28;20040;-77
2023/04/17 13:24:04;;;;;;;7.45;4.32;;;;;;;18.07;53.43;101282.53;5043267;28;20090;-77
2023/04/17 13:26:49;;;;;;;6.25;4.28;;;;;;;17.83;50.67;101266.13;5047093;28;20103;-77
2023/04/17 13:29:33;;;;;;;7.03;3.90;;;;;;;17.85;51.40;101275.03;5040892;28;20067;-77
2023/04/17 13:32:17;;;;;;;7.50;4.13;;;;;;;17.76;50.49;101270.50;5042716;28;20098;-77
2023/04/17 13:35:01;;;;;;;7.80;3.70;;;;;;;17.64;50.61;101269.16;5060517;28;20043;-77
2023/04/17 13:37:46;;;;;;;5.70;3.70;;;;;;;17.62;48.12;101265.00;5051082;28;20043;-77
2023/04/17 13:40:30;;;;;;;5.13;3.20;;;;;;;17.65;49.45;101267.97;5060630;28;20126;-77
2023/04/17 13:43:14;;;;;;;6.03;2.90;;;;;;;17.63;48.79;101266.66;5074211;28;20039;-77
2023/04/17 13:45:58;;;;;;;7.60;3.88;;;;;;;17.54;50.00;101262.97;5032575;28;20059;-77
2023/04/17 13:48:42;;;;;;;5.00;2.97;;;;;;;17.61;50.35;101261.38;5046424;28;20042;-77
2023/04/17 13:51:26;;;;;;;5.03;3.20;;;;;;;17.64;50.21;101254.28;5042386;28;20035;-77
2023/04/17 13:54:11;;;;;;;6.50;3.22;;;;;;;17.68;49.32;101248.84;5045883;28;20035;-77
2023/04/17 13:56:56;;;;;;;7.28;3.28;;;;;;;17.67;50.64;101250.00;5044101;28;20071;-77
2023/04/17 13:59:40;;;;;;;6.03;3.58;;;;;;;17.65;49.52;101247.50;5054900;28;20047;-77
2023/04/17 14:02:24;;;;;;;4.90;3.10;;;;;;;17.60;48.87;101254.06;5061892;28;20048;-77
2023/04/17 14:05:08;;;;;;;6.05;3.70;;;;;;;17.54;49.67;101244.13;5060351;28;20175;-77
2023/04/17 14:07:52;;;;;;;5.70;3.67;;;;;;;17.48;50.25;101239.81;5054399;28;20051;-77
2023/04/17 14:10:37;;;;;;;7.82;4.10;;;;;;;17.57;51.15;101245.47;5045963;28;20043;-77
2023/04/17 14:13:21;;;;;;;9.02;3.75;;;;;;;17.59;52.18;101232.78;5074051;28;20110;-77
2023/04/17 14:16:05;;;;;;;8.48;3.33;;;;;;;17.64;50.94;101231.81;5055240;28;20405;-77
2023/04/17 14:18:49;;;;;;;6.68;3.42;;;;;;;17.61;50.75;101235.28;5041603;28;20182;-77
2023/04/17 14:21:34;;;;;;;7.88;3.50;;;;;;;17.60;52.43;101240.03;5045784;28;20562;-77
2023/04/17 14:24:18;;;;;;;6.95;3.50;;;;;;;17.60;51.82;101231.59;5075964;28;20492;-77
2023/04/17 14:27:02;;;;;;;5.65;3.30;;;;;;;17.70;51.89;101224.06;5060070;28;20054;-77
2023/04/17 14:29:46;;;;;;;9.70;3.70;;;;;;;17.59;51.40;101235.56;5055252;28;20067;-77
2023/04/17 14:32:30;;;;;;;5.50;2.65;;;;;;;17.63;51.54;101222.56;5074185;28;20082;-77
2023/04/17 14:35:15;;;;;;;6.78;3.13;;;;;;;17.60;51.95;101231.59;5050170;28;20044;-77
2023/04/17 14:38:03;;;;;;;4.90;3.28;;;;;;;17.52;51.84;101218.34;5073968;28;20044;-77
2023/04/17 14:40:48;;;;;;;4.90;3.35;;;;;;;17.55;52.39;101214.06;5058897;28;20043;-77
2023/04/17 14:43:32;;;;;;;5.82;3.03;;;;;;;17.56;52.55;101216.56;5035460;28;20044;-77
2023/04/17 14:46:16;;;;;;;7.88;3.33;;;;;;;17.45;51.97;101209.59;5059817;28;20105;-77
2023/04/17 14:49:00;;;;;;;5.88;3.28;;;;;;;17.38;53.21;101215.69;5059254;28;20093;-77
2023/04/17 14:51:44;;;;;;;6.13;3.58;;;;;;;17.40;53.99;101216.16;5041869;28;20052;-77
2023/04/17 14:54:28;;;;;;;5.70;3.53;;;;;;;17.35;54.35;101198.63;5061943;28;20098;-77
2023/04/17 14:57:12;;;;;;;8.02;4.63;;;;;;;17.38;56.01;101206.41;5045661;28;20039;-77
2023/04/17 14:59:56;;;;;;;6.18;3.95;;;;;;;17.26;55.50;101206.19;5062907;28;20047;-77
2023/04/17 15:02:40;;;;;;;6.88;3.60;;;;;;;17.24;54.64;101203.69;5044596;28;20047;-77
2023/04/17 15:05:24;;;;;;;7.53;3.85;;;;;;;17.20;54.65;101199.88;5067828;28;20397;-75
2023/04/17 15:08:09;;;;;;;5.10;4.05;;;;;;;17.14;54.14;101196.38;5064421;28;20096;-74
2023/04/17 15:10:53;;;;;;;6.60;3.50;;;;;;;17.19;54.89;101190.66;5042543;28;20137;-76
2023/04/17 15:13:39;;;;;;;7.25;3.30;;;;;;;17.15;54.74;101188.78;5061828;28;20075;-77
2023/04/17 15:16:23;;;;;;;6.80;3.25;;;;;;;17.13;53.74;101179.84;5066468;28;20141;-77
2023/04/17 15:19:07;;;;;;;7.30;3.78;;;;;;;17.01;52.92;101186.06;5058606;28;20070;-77
2023/04/17 15:21:52;;;;;;;5.15;4.10;;;;;;;16.99;53.89;101182.75;5061206;28;20584;-77
2023/04/17 15:24:35;;;;;;;4.28;3.65;;;;;;;16.99;55.42;101182.75;5057133;28;20114;-77
2023/04/17 15:27:20;;;;;;;6.75;4.85;;;;;;;16.90;55.04;101191.13;5061829;28;20575;-77
2023/04/17 15:30:07;;;;;;;6.78;4.38;;;;;;;16.91;56.54;101189.13;5035980;28;20137;-77
2023/04/17 15:32:52;;;;;;;6.85;4.50;;;;;;;16.91;57.32;101186.34;5076242;28;20051;-77
2023/04/17 15:35:36;;;;;;;5.53;4.00;;;;;;;16.90;55.64;101182.69;5066497;28;20043;-77
2023/04/17 15:38:20;;;;;;;8.35;5.13;;;;;;;16.89;56.67;101197.06;5059865;28;20071;-77
2023/04/17 15:41:04;;;;;;;6.43;4.60;;;;;;;16.83;56.12;101192.75;5037462;28;20111;-77
2023/04/17 15:43:49;;;;;;;7.72;4.55;;;;;;;16.69;54.81;101188.00;5053456;28;20552;-77
2023/04/17 15:46:32;;;;;;;6.53;4.78;;;;;;;16.75;55.14;101191.50;5046666;28;20031;-77
2023/04/17 15:49:17;;;;;;;9.32;6.13;;;;;;;16.68;55.91;101186.31;5051577;28;20069;-77
2023/04/17 15:52:01;;;;;;;8.15;5.75;;;;;;;16.65;55.92;101186.13;5050914;28;20043;-77
2023/04/17 15:54:45;;;;;;;10.73;5.95;;;;;;;16.58;57.41;101175.38;5054510;28;20142;-77
2023/04/17 15:57:29;;;;;;;7.93;6.05;;;;;;;16.57;59.21;101184.09;5064247;28;20035;-77
2023/04/17 16:00:13;;;;;;;8.75;6.35;;;;;;;16.54;59.46;101180.78;5065657;28;20071;-77
2023/04/17 16:02:57;;;;;;;11.38;6.72;;;;;;;16.55;60.45;101187.22;5069739;28;20078;-77
2023/04/17 16:05:41;;;;;;;8.77;6.03;;;;;;;16.46;60.72;101184.34;5072880;28;20069;-76
2023/04/17 16:08:25;;;;;;;8.35;6.65;;;;;;;16.36;61.25;101186.56;5094626;28;20075;-77
2023/04/17 16:11:11;;;;;;;9.10;5.88;;;;;;;16.34;61.15;101174.84;5076195;28;20071;-77
2023/04/17 16:13:55;;;;;;;10.27;5.82;;;;;;;16.27;59.51;101172.50;5078380;28;20063;-76
2023/04/17 16:16:39;;;;;;;7.95;5.15;;;;;;;16.24;59.88;101165.53;5081473;28;20068;-76
2023/04/17 16:19:24;;;;;;;9.60;5.95;;;;;;;16.22;61.41;101167.00;5062278;28;20604;-76
2023/04/17 16:22:08;;;;;;;8.57;5.78;;;;;;;16.19;61.44;101171.25;5062145;28;20675;-76
2023/04/17 16:24:52;;;;;;;12.38;6.63;;;;;;;16.15;63.30;101167.41;5048252;28;20051;-77
2023/04/17 16:27:38;;;;;;;9.00;6.50;;;;;;;16.03;62.58;101169.94;5077632;28;20169;-76
2023/04/17 16:30:22;;;;;;;8.25;6.28;;;;;;;15.99;63.11;101163.31;5076527;28;20047;-76
2023/04/17 16:33:06;;;;;;;8.15;5.90;;;;;;;15.99;64.52;101152.09;5076217;28;20043;-77
2023/04/17 16:35:50;;;;;;;8.98;5.88;;;;;;;15.96;64.13;101159.16;5053526;28;20631;-73
2023/04/17 16:38:37;;;;;;;11.73;6.80;;;;;;;15.84;64.85;101154.09;5074937;28;20047;-74
2023/04/17 16:41:22;;;;;;;8.73;5.40;;;;;;;15.78;63.80;101158.16;5062001;28;20116;-73
2023/04/17 16:44:06;;;;;;;8.82;5.07;;;;;;;15.75;64.76;101161.59;5076947;28;20700;-73
2023/04/17 16:46:49;;;;;;;6.95;5.03;;;;;;;15.67;65.17;101162.31;5061601;28;20099;-75
2023/04/17 16:49:34;;;;;;;6.60;4.20;;;;;;;15.69;64.74;101154.47;5075923;28;20114;-74
2023/04/17 16:52:18;;;;;;;7.10;4.55;;;;;;;15.55;65.42;101162.00;5055049;28;20133;-74
2023/04/17 16:55:02;;;;;;;7.38;5.05;;;;;;;15.54;67.98;101163.13;5061939;28;20637;-74
2023/04/17 16:57:46;;;;;;;6.93;4.78;;;;;;;15.47;67.01;101162.75;5046475;28;20075;-75
2023/04/17 17:00:30;;;;;;;8.00;4.57;;;;;;;15.37;67.15;101158.97;5047084;28;20105;-74
2023/04/17 17:03:14;;;;;;;8.40;5.03;;;;;;;15.29;66.13;101162.50;5016809;28;20043;-72
2023/04/17 17:06:02;;;;;;;8.48;4.57;;;;;;;15.30;65.49;101154.97;5063297;28;20524;-72
2023/04/17 17:08:46;;;;;;;8.02;4.50;;;;;;;15.26;67.84;101156.72;5075139;28;20097;-72
2023/04/17 17:11:31;;;;;;;8.85;4.60;;;;;;;15.22;67.03;101156.50;5047233;28;20043;-72
2023/04/17 17:14:15;;;;;;;5.97;4.25;;;;;;;15.19;66.23;101154.31;5032748;28;20511;-72
2023/04/17 17:16:59;;;;;;;8.38;4.55;;;;;;;15.11;65.86;101155.03;5043416;28;20152;-72
2023/04/17 17:19:43;;;;;;;8.00;4.35;;;;;;;15.05;68.59;101154.31;5057484;28;20039;-72
2023/04/17 17:22:27;;;;;;;6.15;4.50;;;;;;;14.98;65.54;101154.69;5071642;28;20067;-71
2023/04/17 17:25:11;;;;;;;11.18;4.45;;;;;;;14.94;64.18;101150.88;5063105;28;20099;-76
2023/04/17 17:27:56;;;;;;;8.20;4.10;;;;;;;14.86;65.06;101151.56;5032700;28;20107;-76
2023/04/17 17:30:40;;;;;;;6.60;3.80;;;;;;;14.83;66.40;101154.16;5074883;28;20043;-76
2023/04/17 17:33:24;;;;;;;6.35;3.75;;;;;;;14.80;68.21;101158.41;5033679;28;20105;-75
2023/04/17 17:36:08;;;;;;;6.38;3.67;;;;;;;14.75;68.80;101150.09;5061508;28;20114;-76
2023/04/17 17:38:54;;;;;;;8.05;3.65;;;;;;;14.69;68.26;101143.78;5047058;28;20154;-76
2023/04/17 17:41:38;;;;;;;4.60;3.65;;;;;;;14.67;69.32;101145.22;5047413;28;20082;-76
2023/04/17 17:44:22;;;;;;;6.22;3.45;;;;;;;14.64;69.40;101149.44;5038294;28;20056;-76
2023/04/17 17:47:06;;;;;;;6.88;3.83;;;;;;;14.61;69.83;101146.44;5047556;28;20043;-76
2023/04/17 17:49:50;;;;;;;9.55;4.60;;;;;;;14.51;71.26;101148.25;5057569;28;20689;-76
2023/04/17 17:52:35;;;;;;;9.30;5.10;;;;;;;14.40;73.63;101154.28;5050658;28;20101;-76
2023/04/17 17:55:19;;;;;;;8.18;4.72;;;;;;;14.37;74.08;101155.72;5033022;28;20075;-76
2023/04/17 17:58:04;;;;;;;7.97;3.97;;;;;;;14.32;75.53;101144.66;5043935;28;20043;-76
2023/04/17 18:00:48;;;;;;;9.38;4.68;;;;;;;14.20;77.79;101156.28;5062415;28;20103;-76
2023/04/17 18:03:34;;;;;;;8.07;4.93;;;;;;;14.15;77.21;101156.38;5045974;28;20039;-76
2023/04/17 18:06:18;;;;;;;10.25;4.47;;;;;;;14.09;78.34;101149.19;5052949;28;20080;-76
2023/04/17 18:09:03;;;;;;;8.77;4.38;;;;;;;14.01;79.49;101147.91;5037452;28;20054;-76
2023/04/17 18:11:47;;;;;;;6.65;4.05;;;;;;;13.93;79.61;101143.00;5054197;28;20051;-76
2023/04/17 18:14:31;;;;;;;7.00;3.60;;;;;;;13.94;81.33;101150.25;5054520;28;20077;-76
2023/04/17 18:17:15;;;;;;;10.00;4.07;;;;;;;13.88;82.03;101140.28;5084808;28;20039;-76
2023/04/17 18:19:59;;;;;;;7.57;4.20;;;;;;;13.85;82.73;101140.88;5052519;28;20148;-76
2023/04/17 18:22:44;;;;;;;8.20;4.20;;;;;;;13.81;83.69;101145.41;5075000;28;20039;-76
2023/04/17 18:25:28;;;;;;;5.15;3.70;;;;;;;13.77;83.92;101144.34;5046201;28;20597;-77
2023/04/17 18:28:12;;;;;;;6.22;3.90;;;;;;;13.73;85.95;101148.84;5088604;28;20442;-76
2023/04/17 18:30:56;;;;;;;6.95;4.10;;;;;;;13.64;86.98;101151.50;5052979;28;20063;-76
2023/04/17 18:33:40;;;;;;;5.25;3.75;;;;;;;13.59;87.83;101155.16;5052205;28;20118;-76
2023/04/17 18:36:25;;;;;;;8.45;4.53;;;;;;;13.54;87.24;101155.25;5045455;28;20062;-76
2023/04/17 18:39:09;;;;;;;8.05;4.28;;;;;;;13.45;88.22;101159.81;5053785;28;20077;-77
2023/04/17 18:41:53;;;;;;;10.18;4.68;;;;;;;13.40;87.90;101151.53;5051122;28;20051;-76
2023/04/17 18:44:37;;;;;;;5.95;4.00;;;;;;;13.38;86.57;101159.34;5078097;28;20043;-76
2023/04/17 18:47:21;;;;;;;8.45;3.92;;;;;;;13.27;88.44;101155.03;5083735;28;20439;-76
2023/04/17 18:50:06;;;;;;;7.32;3.40;;;;;;;13.25;87.20;101155.28;5073453;28;20043;-76
2023/04/17 18:52:50;;;;;;;6.95;3.72;;;;;;;13.12;87.88;101156.84;5081025;28;20043;-76
2023/04/17 18:55:36;;;;;;;6.95;3.75;;;;;;;13.11;86.90;101157.94;5060797;28;20047;-76
2023/04/17 18:58:22;;;;;;;6.95;3.08;;;;;;;13.06;86.27;101159.94;5064791;28;20067;-76
2023/04/17 19:01:08;;;;;;;7.97;3.30;;;;;;;12.96;86.20;101163.69;5054210;28;20047;-77
2023/04/17 19:03:34;;;;;;;5.05;3.38;;;;;;;12.90;85.73;101167.66;5097563;28;20071;-76
2023/04/17 19:06:01;;;;;;;7.75;3.67;;;;;;;12.73;86.04;101168.94;5046618;28;20602;-76
2023/04/17 19:08:26;;;;;;;7.57;3.33;;;;;;;12.77;85.42;101166.38;5063383;28;20028;-76
2023/04/17 19:10:51;;;;;;;9.05;3.80;;;;;;;12.67;85.49;101167.28;5080179;28;20046;-76
2023/04/17 19:13:17;;;;;;;6.35;3.30;;;;;;;12.52;85.99;101170.22;5062113;28;20089;-76
2023/04/17 19:15:42;;;;;;;5.90;2.78;;;;;;;12.56;85.04;101171.28;5065281;28;20044;-76
2023/04/17 19:18:08;;;;;;;6.80;3.70;;;;;;;12.41;86.16;101169.47;5077966;28;20039;-76
2023/04/17 19:20:35;;;;;;;6.38;3.65;;;;;;;12.32;86.47;101173.16;5106304;28;20057;-76
2023/04/17 19:23:00;;;;;;;7.53;3.92;;;;;;;12.33;85.86;101177.59;5064445;28;20044;-76
2023/04/17 19:25:26;;;;;;;6.22;3.22;;;;;;;12.26;85.75;101177.94;5080868;28;20081;-76
2023/04/17 19:27:51;;;;;;;7.22;3.38;;;;;;;12.26;85.73;101180.72;5101266;28;20039;-76
2023/04/17 19:30:17;;;;;;;5.82;3.25;;;;;;;12.23;85.28;101184.06;5081649;28;20036;-76
2023/04/17 19:32:43;;;;;;;6.13;3.00;;;;;;;12.18;85.61;101186.91;5116496;28;20039;-76
2023/04/17 19:35:09;;;;;;;7.60;3.15;;;;;;;12.14;85.50;101186.63;5097155;28;20028;-76